createdAt,value
2019-01-06T00:01:30.811Z,6.78
2019-01-06T00:04:15.726Z,7.03
2019-01-06T00:07:00.194Z,6.40
2019-01-06T00:09:31.509Z,7.30
2019-01-06T00:12:03.041Z,6.35
2019-01-06T00:14:31.604Z,6.75
2019-01-06T00:17:16.557Z,6.22
2019-01-06T00:20:01.566Z,6.22
2019-01-06T00:22:33.176Z,5.65
2019-01-06T00:25:07.589Z,4.17
2019-01-06T00:27:39.056Z,6.03
2019-01-06T00:30:08.009Z,5.10
2019-01-06T00:32:52.807Z,5.33
2019-01-06T00:35:27.264Z,5.15
2019-01-06T00:38:10.802Z,5.35
2019-01-06T00:40:59.161Z,6.10
2019-01-06T00:43:27.516Z,5.95
2019-01-06T00:46:04.751Z,5.95
2019-01-06T00:48:42.071Z,6.12
2019-01-06T00:51:26.737Z,5.85
2019-01-06T00:53:55.093Z,5.47
2019-01-06T00:56:26.204Z,5.55
2019-01-06T00:59:06.767Z,6.72
2019-01-06T01:01:35.150Z,5.58
2019-01-06T01:04:06.380Z,6.45
2019-01-06T01:06:37.839Z,5.55
2019-01-06T01:09:44.380Z,5.42
2019-01-06T01:12:13.129Z,6.12
2019-01-06T01:14:58.088Z,7.08
2019-01-06T01:17:43.096Z,5.95
2019-01-06T01:20:23.491Z,7.10
2019-01-06T01:22:54.800Z,7.40
2019-01-06T01:25:26.055Z,7.40
2019-01-06T01:28:00.488Z,7.03
2019-01-06T01:30:41.031Z,7.20
2019-01-06T01:33:12.460Z,7.62
2019-01-06T01:35:43.778Z,6.85
2019-01-06T01:38:28.403Z,8.13
2019-01-06T01:41:09.011Z,7.37
2019-01-06T01:43:37.364Z,8.70
2019-01-06T01:46:22.537Z,8.75
2019-01-06T01:48:53.712Z,8.18
2019-01-06T01:51:22.080Z,8.90
2019-01-06T01:54:05.059Z,10.32
2019-01-06T01:56:49.783Z,8.88
2019-01-06T01:59:26.744Z,10.28
2019-01-06T02:01:55.304Z,9.08
2019-01-06T02:04:29.628Z,10.35
2019-01-06T02:07:10.119Z,8.35
2019-01-06T02:09:44.492Z,9.58
2019-01-06T02:12:12.968Z,10.08
2019-01-06T02:14:59.203Z,8.70
2019-01-06T02:17:39.582Z,8.35
2019-01-06T02:20:20.116Z,9.30
2019-01-06T02:22:54.267Z,9.88
2019-01-06T02:25:28.433Z,7.97
2019-01-06T02:27:56.887Z,8.73
2019-01-06T02:30:31.000Z,9.00
2019-01-06T02:33:11.330Z,9.73
2019-01-06T02:35:42.948Z,9.10
2019-01-06T02:38:17.568Z,8.78
2019-01-06T02:40:51.975Z,7.87
2019-01-06T02:43:20.329Z,8.30
2019-01-06T02:45:54.783Z,7.60
2019-01-06T02:48:39.946Z,8.05
2019-01-06T02:51:25.059Z,9.25
2019-01-06T02:54:09.903Z,8.20
2019-01-06T02:56:54.960Z,8.80
2019-01-06T02:59:38.444Z,9.23
2019-01-06T03:02:12.545Z,8.45
2019-01-06T03:04:40.909Z,7.70
2019-01-06T03:07:09.169Z,7.87
2019-01-06T03:09:46.707Z,8.80
2019-01-06T03:12:31.648Z,8.85
2019-01-06T03:15:00.016Z,7.70
2019-01-06T03:17:44.461Z,8.63
2019-01-06T03:20:18.845Z,8.53
2019-01-06T03:22:58.916Z,8.60
2019-01-06T03:25:30.392Z,10.80
2019-01-06T03:28:01.876Z,8.15
2019-01-06T03:30:46.749Z,7.45
2019-01-06T03:33:30.305Z,10.55
2019-01-06T03:35:58.667Z,8.60
2019-01-06T03:38:43.309Z,7.50
2019-01-06T03:41:21.181Z,8.83
2019-01-06T03:44:04.449Z,7.95
2019-01-06T03:46:49.321Z,9.85
2019-01-06T03:49:34.252Z,9.20
2019-01-06T03:52:11.279Z,8.90
2019-01-06T03:54:43.192Z,8.65
2019-01-06T03:57:11.676Z,7.47
2019-01-06T03:59:46.094Z,8.30
2019-01-06T04:02:17.352Z,8.28
2019-01-06T04:05:03.776Z,8.38
2019-01-06T04:07:38.269Z,9.30
2019-01-06T04:10:12.909Z,9.18
2019-01-06T04:12:47.096Z,8.70
2019-01-06T04:15:32.233Z,8.15
2019-01-06T04:18:03.268Z,8.15
2019-01-06T04:20:47.963Z,8.18
2019-01-06T04:23:33.431Z,9.90
2019-01-06T04:26:04.567Z,7.25
2019-01-06T04:28:33.220Z,10.23
2019-01-06T04:31:10.591Z,9.50
2019-01-06T04:33:45.013Z,11.05
2019-01-06T04:36:30.145Z,10.30
2019-01-06T04:39:15.387Z,9.08
2019-01-06T04:41:46.474Z,8.68
2019-01-06T04:44:18.008Z,8.70
2019-01-06T04:47:02.921Z,8.55
2019-01-06T04:49:48.052Z,10.13
2019-01-06T04:52:16.698Z,9.93
2019-01-06T04:54:57.329Z,11.10
2019-01-06T04:57:42.054Z,11.10
2019-01-06T05:00:19.560Z,11.20
2019-01-06T05:02:51.142Z,10.60
2019-01-06T05:05:31.430Z,12.03
2019-01-06T05:08:02.586Z,11.22
2019-01-06T05:10:47.557Z,13.55
2019-01-06T05:13:19.200Z,11.12
2019-01-06T05:15:47.698Z,10.88
2019-01-06T05:18:21.752Z,12.20
2019-01-06T05:20:50.351Z,11.78
2019-01-06T05:23:21.519Z,11.22
2019-01-06T05:26:06.284Z,11.55
2019-01-06T05:28:51.336Z,12.03
2019-01-06T05:31:28.831Z,12.35
2019-01-06T05:34:13.904Z,10.98
2019-01-06T05:36:47.775Z,12.28
2019-01-06T05:39:19.001Z,11.30
2019-01-06T05:42:03.842Z,10.82
2019-01-06T05:44:38.179Z,11.80
2019-01-06T05:47:22.952Z,11.45
2019-01-06T05:49:51.212Z,11.65
2019-01-06T05:52:19.587Z,11.08
2019-01-06T05:55:04.185Z,11.28
2019-01-06T05:57:32.697Z,9.78
2019-01-06T06:00:01.148Z,10.58
2019-01-06T06:02:32.480Z,10.18
2019-01-06T06:05:17.572Z,10.25
2019-01-06T06:07:52.317Z,10.85
2019-01-06T06:10:26.743Z,10.85
2019-01-06T06:13:10.213Z,10.45
2019-01-06T06:15:55.236Z,10.95
2019-01-06T06:18:32.118Z,11.05
2019-01-06T06:21:18.585Z,11.85
2019-01-06T06:23:50.086Z,11.68
2019-01-06T06:26:27.525Z,10.10
2019-01-06T06:29:08.064Z,10.05
2019-01-06T06:31:54.838Z,11.57
2019-01-06T06:34:29.070Z,9.20
2019-01-06T06:37:06.317Z,9.43
2019-01-06T06:39:51.120Z,11.10
2019-01-06T06:42:36.020Z,10.05
2019-01-06T06:45:08.106Z,9.85
2019-01-06T06:47:42.107Z,9.98
2019-01-06T06:50:16.370Z,14.43
2019-01-06T06:52:44.718Z,10.40
2019-01-06T06:55:28.245Z,12.07
2019-01-06T06:58:13.823Z,10.60
2019-01-06T07:01:06.084Z,11.00
2019-01-06T07:03:59.072Z,10.70
2019-01-06T07:06:30.581Z,9.95
2019-01-06T07:09:08.176Z,11.45
2019-01-06T07:11:52.923Z,9.45
2019-01-06T07:14:39.520Z,11.05
2019-01-06T07:18:03.064Z,10.58
2019-01-06T07:20:43.640Z,10.23
2019-01-06T07:23:27.133Z,11.43
2019-01-06T07:26:04.407Z,11.70
2019-01-06T07:28:33.055Z,11.90
2019-01-06T07:31:01.416Z,12.20
2019-01-06T07:33:46.396Z,9.70
2019-01-06T07:36:14.840Z,12.23
2019-01-06T07:38:52.273Z,11.88
2019-01-06T07:41:35.743Z,10.65
2019-01-06T07:44:10.183Z,10.13
2019-01-06T07:46:41.543Z,10.90
2019-01-06T07:49:26.566Z,11.25
2019-01-06T07:51:55.147Z,12.30
2019-01-06T07:54:39.125Z,11.83
2019-01-06T07:57:07.615Z,12.85
2019-01-06T07:59:35.972Z,11.97
2019-01-06T08:02:07.312Z,12.28
2019-01-06T08:04:44.666Z,11.60
2019-01-06T08:07:28.119Z,11.80
2019-01-06T08:10:02.221Z,12.88
2019-01-06T08:12:48.681Z,11.15
2019-01-06T08:15:33.379Z,11.88
2019-01-06T08:18:01.733Z,14.60
2019-01-06T08:20:34.948Z,13.80
2019-01-06T08:23:03.311Z,13.70
2019-01-06T08:25:34.657Z,15.43
2019-01-06T08:28:19.592Z,15.53
2019-01-06T08:30:48.113Z,11.93
2019-01-06T08:33:28.411Z,13.95
2019-01-06T08:35:56.656Z,15.58
2019-01-06T08:38:27.689Z,15.05
2019-01-06T08:41:01.888Z,15.83
2019-01-06T08:43:32.909Z,15.95
2019-01-06T08:46:13.182Z,17.15
2019-01-06T08:48:53.684Z,17.80
2019-01-06T08:51:22.031Z,16.05
2019-01-06T08:54:08.258Z,19.20
2019-01-06T08:56:45.180Z,16.62
2019-01-06T08:59:30.096Z,18.37
2019-01-06T09:02:15.019Z,16.80
2019-01-06T09:04:49.325Z,17.57
2019-01-06T09:07:34.130Z,16.67
2019-01-06T09:10:05.737Z,18.45
2019-01-06T09:12:50.689Z,18.32
2019-01-06T09:15:35.766Z,17.27
2019-01-06T09:18:06.717Z,17.55
2019-01-06T09:20:38.263Z,18.20
2019-01-06T09:23:23.279Z,18.60
2019-01-06T09:25:51.661Z,17.45
2019-01-06T09:28:28.839Z,20.68
2019-01-06T09:31:15.040Z,19.73
2019-01-06T09:33:59.664Z,19.15
2019-01-06T09:36:44.256Z,19.50
2019-01-06T09:39:18.891Z,19.23
2019-01-06T09:42:02.361Z,17.15
2019-01-06T09:44:33.567Z,17.17
2019-01-06T09:47:04.535Z,18.45
2019-01-06T09:49:49.361Z,16.62
2019-01-06T09:52:17.709Z,18.15
2019-01-06T09:54:55.068Z,16.02
2019-01-06T09:57:23.517Z,17.05
2019-01-06T10:00:03.656Z,17.20
2019-01-06T10:02:50.132Z,16.45
2019-01-06T10:05:24.563Z,18.17
2019-01-06T10:07:58.977Z,14.33
2019-01-06T10:10:36.343Z,15.65
2019-01-06T10:13:21.083Z,15.23
2019-01-06T10:16:06.041Z,15.48
2019-01-06T10:18:52.582Z,11.70
2019-01-06T10:21:21.357Z,13.15
2019-01-06T10:24:06.267Z,12.60
2019-01-06T10:26:34.648Z,11.55
2019-01-06T10:29:21.243Z,11.80
2019-01-06T10:32:06.302Z,11.90
2019-01-06T10:34:34.664Z,11.50
2019-01-06T10:37:15.285Z,12.93
2019-01-06T10:39:58.886Z,11.35
2019-01-06T10:42:27.262Z,12.05
2019-01-06T10:44:55.721Z,12.53
2019-01-06T10:47:24.265Z,12.47
2019-01-06T10:49:53.009Z,13.53
2019-01-06T10:52:36.358Z,12.75
2019-01-06T10:55:22.273Z,13.83
2019-01-06T10:57:50.739Z,13.43
2019-01-06T11:00:35.623Z,13.95
2019-01-06T11:03:20.687Z,14.53
2019-01-06T11:05:55.082Z,14.65
2019-01-06T11:08:35.525Z,14.87
2019-01-06T11:11:16.060Z,11.30
2019-01-06T11:13:44.547Z,12.65
2019-01-06T11:16:29.396Z,15.45
2019-01-06T11:19:01.107Z,12.75
2019-01-06T11:21:32.183Z,14.00
2019-01-06T11:24:17.336Z,13.95
2019-01-06T11:26:45.792Z,13.00
2019-01-06T11:29:20.225Z,14.00
2019-01-06T11:32:03.407Z,12.88
2019-01-06T11:34:46.613Z,12.75
2019-01-06T11:37:24.252Z,12.82
2019-01-06T11:40:07.520Z,13.68
2019-01-06T11:42:54.000Z,14.28
2019-01-06T11:45:22.480Z,13.83
2019-01-06T11:48:02.921Z,12.50
2019-01-06T11:50:31.299Z,14.25
2019-01-06T11:53:02.636Z,13.45
2019-01-06T11:55:34.109Z,11.65
2019-01-06T11:58:19.200Z,13.25
2019-01-06T12:00:53.550Z,12.05
2019-01-06T12:03:38.491Z,12.03
2019-01-06T12:06:06.765Z,12.10
2019-01-06T12:08:41.075Z,14.47
2019-01-06T12:11:08.304Z,11.73
2019-01-06T12:13:37.021Z,11.55
2019-01-06T12:16:05.828Z,13.72
2019-01-06T12:18:34.111Z,14.55
2019-01-06T12:21:08.347Z,12.68
2019-01-06T12:23:39.772Z,11.75
2019-01-06T12:26:23.656Z,12.95
2019-01-06T12:28:52.002Z,13.90
2019-01-06T12:31:26.369Z,13.08
2019-01-06T12:34:00.684Z,13.18
2019-01-06T12:36:34.776Z,13.48
2019-01-06T12:39:11.827Z,12.18
2019-01-06T12:41:49.181Z,13.43
2019-01-06T12:44:23.219Z,11.80
2019-01-06T12:47:08.147Z,13.03
2019-01-06T12:49:36.500Z,13.00
2019-01-06T12:52:21.524Z,12.58
2019-01-06T12:54:55.984Z,12.10
2019-01-06T12:57:24.633Z,11.95
2019-01-06T13:00:09.613Z,13.50
2019-01-06T13:02:37.987Z,13.20
2019-01-06T13:05:06.448Z,14.25
2019-01-06T13:07:51.396Z,14.25
2019-01-06T13:10:31.345Z,14.15
2019-01-06T13:13:17.760Z,13.40
2019-01-06T13:15:49.107Z,17.07
2019-01-06T13:18:17.591Z,15.88
2019-01-06T13:21:02.477Z,15.90
2019-01-06T13:23:39.924Z,13.40
2019-01-06T13:26:25.161Z,16.37
2019-01-06T13:29:02.615Z,14.87
2019-01-06T13:31:36.973Z,15.03
2019-01-06T13:34:21.701Z,14.65
2019-01-06T13:36:56.080Z,15.78
2019-01-06T13:39:41.429Z,14.58
2019-01-06T13:42:09.788Z,15.10
2019-01-06T13:44:44.249Z,13.90
2019-01-06T13:47:12.600Z,13.80
2019-01-06T13:49:50.195Z,14.90
2019-01-06T13:52:35.132Z,19.65
2019-01-06T13:55:12.531Z,14.03
2019-01-06T13:57:40.877Z,13.48
2019-01-06T14:00:10.356Z,14.20
2019-01-06T14:02:41.237Z,13.50
2019-01-06T14:05:15.954Z,15.88
2019-01-06T14:08:00.652Z,15.35
2019-01-06T14:10:32.012Z,13.48
2019-01-06T14:13:06.481Z,14.30
2019-01-06T14:15:51.606Z,14.38
2019-01-06T14:18:28.995Z,14.53
2019-01-06T14:21:12.152Z,15.63
2019-01-06T14:23:43.284Z,15.28
2019-01-06T14:26:17.561Z,14.18
2019-01-06T14:29:02.671Z,13.22
2019-01-06T14:31:34.152Z,15.63
2019-01-06T14:34:11.604Z,17.42
2019-01-06T14:36:56.360Z,16.60
2019-01-06T14:39:27.980Z,16.27
2019-01-06T14:42:12.752Z,15.60
2019-01-06T14:44:47.335Z,16.17
2019-01-06T14:47:30.984Z,15.80
2019-01-06T14:49:59.345Z,15.60
2019-01-06T14:52:30.525Z,17.75
2019-01-06T14:55:04.673Z,18.85
2019-01-06T14:57:35.560Z,15.78
2019-01-06T15:00:06.419Z,15.58
2019-01-06T15:02:43.429Z,16.80
2019-01-06T15:05:28.177Z,15.50
2019-01-06T15:08:02.688Z,16.80
2019-01-06T15:10:31.038Z,16.17
2019-01-06T15:12:59.672Z,14.28
2019-01-06T15:15:28.336Z,14.33
2019-01-06T15:18:08.707Z,15.08
2019-01-06T15:20:45.888Z,15.25
2019-01-06T15:23:20.080Z,14.85
2019-01-06T15:26:00.518Z,14.60
2019-01-06T15:28:41.066Z,16.05
2019-01-06T15:31:21.429Z,16.15
2019-01-06T15:34:04.698Z,14.47
2019-01-06T15:36:53.988Z,13.43
2019-01-06T15:39:42.375Z,14.40
2019-01-06T15:42:22.583Z,16.15
2019-01-06T15:44:50.967Z,13.25
2019-01-06T15:47:25.312Z,15.15
2019-01-06T15:50:11.869Z,12.80
2019-01-06T15:52:55.349Z,23.10
2019-01-06T15:55:35.509Z,18.32
2019-01-06T15:58:20.420Z,15.35
2019-01-06T16:01:00.980Z,14.78
2019-01-06T16:03:38.312Z,13.35
2019-01-06T16:06:09.821Z,14.23
2019-01-06T16:08:38.162Z,12.95
2019-01-06T16:11:06.802Z,14.07
2019-01-06T16:13:38.292Z,14.98
2019-01-06T16:16:06.794Z,14.05
2019-01-06T16:18:53.248Z,14.50
2019-01-06T16:21:30.432Z,13.75
2019-01-06T16:24:04.607Z,13.83
2019-01-06T16:26:51.349Z,12.82
2019-01-06T16:29:36.036Z,13.98
2019-01-06T16:32:22.561Z,13.18
2019-01-06T16:34:53.632Z,14.70
2019-01-06T16:37:24.993Z,12.73
2019-01-06T16:39:53.358Z,14.15
2019-01-06T16:42:38.313Z,15.18
2019-01-06T16:45:22.069Z,14.38
2019-01-06T16:47:50.456Z,15.48
2019-01-06T16:50:35.492Z,15.10
2019-01-06T16:53:09.544Z,13.90
2019-01-06T16:55:54.569Z,15.00
2019-01-06T16:58:28.308Z,18.45
2019-01-06T17:01:14.382Z,16.82
2019-01-06T17:03:42.997Z,16.32
2019-01-06T17:06:23.143Z,14.70
2019-01-06T17:09:06.584Z,15.90
2019-01-06T17:11:34.960Z,14.47
2019-01-06T17:14:19.428Z,16.95
2019-01-06T17:17:05.899Z,17.67
2019-01-06T17:19:46.628Z,16.15
2019-01-06T17:22:14.893Z,15.90
2019-01-06T17:24:59.990Z,15.65
2019-01-06T17:27:31.350Z,18.50
2019-01-06T17:29:59.776Z,16.95
2019-01-06T17:32:46.409Z,15.23
2019-01-06T17:35:31.468Z,18.73
2019-01-06T17:38:16.339Z,19.05
2019-01-06T17:40:44.708Z,16.17
2019-01-06T17:43:18.881Z,16.60
2019-01-06T17:46:05.466Z,17.87
2019-01-06T17:48:50.475Z,17.70
2019-01-06T17:51:33.600Z,18.67
2019-01-06T17:54:07.908Z,18.82
2019-01-06T17:56:51.140Z,20.00
2019-01-06T17:59:25.228Z,19.62
2019-01-06T18:02:08.825Z,20.35
2019-01-06T18:04:53.742Z,18.80
2019-01-06T18:07:25.251Z,20.25
2019-01-06T18:10:08.657Z,20.45
2019-01-06T18:12:40.001Z,22.10
2019-01-06T18:15:18.724Z,19.75
2019-01-06T18:17:47.085Z,17.42
2019-01-06T18:20:33.855Z,18.20
2019-01-06T18:23:20.045Z,20.50
2019-01-06T18:25:51.148Z,22.82
2019-01-06T18:28:19.440Z,19.98
2019-01-06T18:31:03.043Z,21.82
2019-01-06T18:33:34.322Z,20.40
2019-01-06T18:36:08.740Z,22.35
2019-01-06T18:38:55.209Z,27.48
2019-01-06T18:41:38.763Z,22.67
2019-01-06T18:44:24.039Z,19.65
2019-01-06T18:46:55.140Z,20.72
2019-01-06T18:49:29.444Z,20.55
2019-01-06T18:51:57.838Z,20.80
2019-01-06T18:54:42.812Z,20.72
2019-01-06T18:57:25.940Z,21.42
2019-01-06T19:00:12.384Z,21.50
2019-01-06T19:02:57.373Z,20.55
2019-01-06T19:05:28.771Z,21.90
2019-01-06T19:07:57.165Z,23.87
2019-01-06T19:10:28.441Z,22.62
2019-01-06T19:13:02.499Z,20.65
2019-01-06T19:15:38.928Z,21.75
2019-01-06T19:18:07.425Z,20.70
2019-01-06T19:20:41.521Z,20.62
2019-01-06T19:23:25.028Z,21.00
2019-01-06T19:26:09.857Z,17.55
2019-01-06T19:28:44.347Z,20.02
2019-01-06T19:31:19.097Z,20.00
2019-01-06T19:34:02.328Z,20.30
2019-01-06T19:36:36.309Z,20.80
2019-01-06T19:39:16.131Z,21.55
2019-01-06T19:41:47.394Z,21.93
2019-01-06T19:44:24.738Z,18.37
2019-01-06T19:46:55.964Z,22.50
2019-01-06T19:49:36.516Z,17.20
2019-01-06T19:52:21.589Z,17.42
2019-01-06T19:54:59.327Z,16.87
2019-01-06T19:57:47.168Z,16.70
2019-01-06T20:00:24.855Z,16.00
2019-01-06T20:03:02.499Z,17.42
2019-01-06T20:05:30.991Z,14.47
2019-01-06T20:08:14.492Z,15.88
2019-01-06T20:10:54.981Z,16.25
2019-01-06T20:13:40.354Z,16.25
2019-01-06T20:16:24.973Z,16.07
2019-01-06T20:18:56.417Z,15.63
2019-01-06T20:21:34.042Z,14.85
2019-01-06T20:24:02.504Z,16.05
2019-01-06T20:26:47.284Z,14.65
2019-01-06T20:29:18.713Z,15.65
2019-01-06T20:31:58.928Z,15.68
2019-01-06T20:34:33.395Z,15.13
2019-01-06T20:37:01.772Z,15.98
2019-01-06T20:39:35.859Z,15.58
2019-01-06T20:42:20.620Z,15.50
2019-01-06T20:45:05.578Z,14.53
2019-01-06T20:47:42.948Z,14.98
2019-01-06T20:50:11.409Z,15.20
2019-01-06T20:52:57.887Z,17.45
2019-01-06T20:55:26.297Z,15.70
2019-01-06T20:58:11.377Z,15.93
2019-01-06T21:00:56.317Z,18.98
2019-01-06T21:03:31.112Z,16.10
2019-01-06T21:06:16.015Z,17.62
2019-01-06T21:08:59.553Z,16.97
2019-01-06T21:11:30.721Z,18.65
2019-01-06T21:14:05.132Z,17.65
2019-01-06T21:16:48.664Z,19.57
2019-01-06T21:19:17.035Z,19.57
2019-01-06T21:21:48.358Z,19.05
2019-01-06T21:24:16.720Z,19.95
2019-01-06T21:27:01.370Z,18.15
2019-01-06T21:29:46.349Z,19.75
2019-01-06T21:32:26.910Z,23.98
2019-01-06T21:35:13.420Z,21.02
2019-01-06T21:37:41.782Z,22.32
2019-01-06T21:40:26.769Z,24.32
2019-01-06T21:42:55.216Z,23.45
2019-01-06T21:45:23.687Z,22.42
2019-01-06T21:48:08.632Z,22.70
2019-01-06T21:50:37.002Z,24.75
2019-01-06T21:53:17.525Z,22.90
2019-01-06T21:55:46.008Z,24.02
2019-01-06T21:58:23.450Z,26.35
2019-01-06T22:00:51.925Z,21.95
2019-01-06T22:03:29.304Z,25.30
2019-01-06T22:06:06.677Z,25.08
2019-01-06T22:08:35.036Z,25.48
2019-01-06T22:11:21.352Z,25.48
2019-01-06T22:13:55.590Z,24.60
2019-01-06T22:16:23.988Z,25.75
2019-01-06T22:19:09.197Z,24.12
2019-01-06T22:21:55.461Z,23.70
2019-01-06T22:24:40.189Z,25.82
2019-01-06T22:27:11.547Z,24.15
2019-01-06T22:29:56.241Z,23.15
2019-01-06T22:32:27.720Z,23.85
2019-01-06T22:35:12.662Z,24.27
2019-01-06T22:37:57.717Z,23.73
2019-01-06T22:40:26.070Z,25.37
2019-01-06T22:42:57.405Z,20.15
2019-01-06T22:45:43.948Z,22.35
2019-01-06T22:48:21.144Z,26.00
2019-01-06T22:50:52.448Z,24.87
2019-01-06T22:53:38.592Z,21.95
2019-01-06T22:56:06.949Z,23.32
2019-01-06T22:58:50.454Z,23.38
2019-01-06T23:01:21.529Z,21.15
2019-01-06T23:03:55.434Z,21.05
2019-01-06T23:06:32.777Z,23.80
2019-01-06T23:09:10.285Z,22.02
2019-01-06T23:11:47.734Z,20.80
2019-01-06T23:14:24.908Z,22.32
2019-01-06T23:16:53.179Z,22.62
2019-01-06T23:19:38.245Z,20.88
2019-01-06T23:22:06.596Z,21.27
2019-01-06T23:24:51.344Z,21.27
2019-01-06T23:27:19.964Z,21.27
2019-01-06T23:29:48.335Z,22.30
2019-01-06T23:32:34.613Z,21.05
2019-01-06T23:35:19.622Z,20.05
2019-01-06T23:37:50.784Z,24.63
2019-01-06T23:40:19.268Z,23.25
2019-01-06T23:43:02.983Z,26.23
2019-01-06T23:45:37.113Z,26.85
2019-01-06T23:48:08.704Z,24.90
2019-01-06T23:50:54.996Z,27.40
2019-01-06T23:53:41.391Z,26.35
2019-01-06T23:56:26.005Z,29.12
2019-01-06T23:58:57.046Z,28.12
